Terminal Aerodrome Forecast
Issued by NWS

Home | Current Version | Previous Version | Text Only | Print | Product List | Glossary On
Versions: 1 2 3 4 5 6 7 8 9 10 11 12
000
FTUS45 KVEF 020500
TAFEED
TAF
KEED 020525Z 0206/0306 35011KT P6SM SKC
     FM021700 02018G28KT P6SM SKC
     FM030100 36010KT P6SM SKC=

USA.gov is the U.S. government's official web portal to all federal, state and local government web resources and services.